Time;durP1;ratioP1;P1;durP2;ratioP2;P2;SDS_P1;SDS_P2;PMS_P1;PMS_P2;Temp;Humidity;BMP_temperature;BMP_pressure;BME280_temperature;BME280_humidity;BME280_pressure;Samples;Min_cycle;Max_cycle;Signal;HPM_P1;HPM_P2
2022/12/11 00:00:43;;;;;;;131.95;33.22;;;0.20;99.40;;;;;;5055690;28;20036;-81
2022/12/11 00:03:09;;;;;;;144.23;37.22;;;0.20;99.50;;;;;;5071849;28;20127;-78
2022/12/11 00:05:40;;;;;;;148.70;38.85;;;0.20;99.50;;;;;;5071974;28;20471;-79
2022/12/11 00:08:06;;;;;;;161.27;38.33;;;0.20;99.50;;;;;;5055386;28;20109;-81
2022/12/11 00:10:32;;;;;;;142.95;35.63;;;0.20;99.50;;;;;;5055222;28;20033;-81
2022/12/11 00:12:57;;;;;;;147.70;36.65;;;0.30;99.50;;;;;;5071980;28;20044;-79
2022/12/11 00:15:23;;;;;;;179.35;42.60;;;0.20;99.50;;;;;;5055145;28;20396;-80
2022/12/11 00:17:49;;;;;;;142.10;35.67;;;0.30;99.50;;;;;;5055058;28;20048;-80
2022/12/11 00:20:15;;;;;;;147.82;36.05;;;0.30;99.50;;;;;;5038384;28;20071;-81
2022/12/11 00:22:40;;;;;;;152.23;36.72;;;0.30;99.50;;;;;;5038564;28;20040;-81
2022/12/11 00:25:07;;;;;;;140.07;36.05;;;0.30;99.50;;;;;;5071659;28;20040;-78
2022/12/11 00:27:32;;;;;;;158.52;39.75;;;0.30;99.50;;;;;;5054865;28;20476;-82
2022/12/11 00:29:58;;;;;;;153.82;36.00;;;0.30;99.50;;;;;;5055241;28;20060;-81
2022/12/11 00:32:24;;;;;;;154.35;39.83;;;0.30;99.50;;;;;;5071566;28;20434;-79
2022/12/11 00:34:50;;;;;;;133.52;34.85;;;0.30;99.50;;;;;;5071954;28;20028;-79
2022/12/11 00:37:15;;;;;;;142.68;36.33;;;0.30;99.50;;;;;;5071512;28;20494;-79
2022/12/11 00:39:41;;;;;;;135.60;34.80;;;0.30;99.50;;;;;;5054885;28;20041;-78
2022/12/11 00:42:07;;;;;;;119.38;32.42;;;0.30;99.50;;;;;;5054721;28;20127;-79
2022/12/11 00:44:33;;;;;;;114.35;32.42;;;0.30;99.50;;;;;;5058387;28;20044;-80
2022/12/11 00:46:59;;;;;;;119.38;32.08;;;0.30;99.40;;;;;;5075448;28;20047;-80
2022/12/11 00:49:25;;;;;;;125.25;35.00;;;0.30;99.40;;;;;;5042264;28;20040;-78
2022/12/11 00:51:50;;;;;;;120.32;33.05;;;0.40;99.50;;;;;;5075510;28;20049;-79
2022/12/11 00:54:16;;;;;;;119.07;33.63;;;0.40;99.50;;;;;;5041994;28;20060;-80
2022/12/11 00:56:42;;;;;;;107.72;31.58;;;0.30;99.40;;;;;;5042301;28;20047;-79
2022/12/11 00:59:08;;;;;;;107.25;32.72;;;0.30;99.40;;;;;;5058771;28;20041;-79
2022/12/11 01:01:34;;;;;;;117.70;31.92;;;0.30;99.40;;;;;;5042070;28;20452;-79
2022/12/11 01:04:00;;;;;;;109.63;31.23;;;0.40;99.50;;;;;;5058847;28;20400;-79
2022/12/11 01:06:27;;;;;;;119.97;33.47;;;0.40;99.50;;;;;;5058666;28;20041;-80
2022/12/11 01:11:39;;;;;;;117.38;31.98;;;0.40;99.40;;;;;;5075149;28;20076;-80
2022/12/11 01:14:05;;;;;;;116.88;33.30;;;0.40;99.40;;;;;;5074972;28;20045;-81
2022/12/11 01:16:31;;;;;;;122.35;33.05;;;0.40;99.40;;;;;;5058474;28;20037;-79
2022/12/11 01:18:58;;;;;;;110.80;31.92;;;0.40;99.30;;;;;;5074824;28;20039;-80
2022/12/11 01:21:23;;;;;;;117.55;33.92;;;0.40;99.40;;;;;;5041715;28;20073;-80
2022/12/11 01:23:50;;;;;;;117.03;32.03;;;0.40;99.40;;;;;;5074807;28;20414;-80
2022/12/11 01:26:16;;;;;;;118.88;32.35;;;0.40;99.40;;;;;;5041706;28;20043;-80
2022/12/11 01:28:42;;;;;;;107.50;30.27;;;0.40;99.40;;;;;;5057932;28;20047;-79
2022/12/11 01:31:13;;;;;;;114.00;33.78;;;0.40;99.40;;;;;;5058061;28;20036;-79
2022/12/11 01:33:39;;;;;;;108.13;29.83;;;0.40;99.40;;;;;;5058200;28;20044;-81
2022/12/11 01:36:10;;;;;;;112.10;32.03;;;0.50;99.40;;;;;;5074662;28;20072;-82
2022/12/11 01:38:36;;;;;;;111.07;30.80;;;0.40;99.40;;;;;;5042231;28;20570;-82
2022/12/11 01:41:02;;;;;;;108.35;33.30;;;0.50;99.40;;;;;;5057945;28;20127;-79
2022/12/11 01:43:28;;;;;;;108.85;32.15;;;0.50;99.40;;;;;;5074793;28;20047;-82
2022/12/11 01:45:53;;;;;;;111.15;31.88;;;0.50;99.40;;;;;;5058063;28;20500;-82
2022/12/11 01:48:24;;;;;;;111.60;34.05;;;0.50;99.40;;;;;;5074397;28;20037;-81
2022/12/11 01:51:00;;;;;;;129.40;35.72;;;0.50;99.40;;;;;;5074453;28;20042;-82
2022/12/11 01:53:35;;;;;;;120.15;32.45;;;0.50;99.40;;;;;;5074064;28;20088;-79
2022/12/11 01:56:03;;;;;;;112.18;31.90;;;0.60;99.40;;;;;;5074538;28;20048;-79
2022/12/11 01:58:37;;;;;;;115.53;34.50;;;0.60;99.40;;;;;;5074446;28;20083;-80
2022/12/11 02:01:03;;;;;;;113.40;34.17;;;0.60;99.40;;;;;;5057955;28;20114;-80
2022/12/11 02:03:29;;;;;;;116.35;32.30;;;0.60;99.30;;;;;;5057869;28;20492;-81
2022/12/11 02:06:01;;;;;;;127.93;34.90;;;0.60;99.40;;;;;;5074629;28;20055;-82
2022/12/11 02:08:27;;;;;;;108.82;31.73;;;0.60;99.40;;;;;;5074701;28;20041;-80
2022/12/11 02:11:06;;;;;;;125.15;36.05;;;0.60;99.40;;;;;;5058221;28;20529;-81
2022/12/11 02:13:50;;;;;;;102.18;33.65;;;0.60;99.40;;;;;;5074729;28;20040;-81
2022/12/11 02:16:28;;;;;;;112.22;34.00;;;0.60;99.40;;;;;;5057857;28;20037;-81
2022/12/11 02:19:03;;;;;;;111.55;33.90;;;0.60;99.40;;;;;;5057741;28;20048;-81
2022/12/11 02:21:40;;;;;;;132.90;36.20;;;0.60;99.40;;;;;;5074562;28;20506;-79
2022/12/11 02:24:13;;;;;;;110.60;33.38;;;0.70;99.30;;;;;;5074271;28;20040;-80
2022/12/11 02:27:10;;;;;;;108.03;32.67;;;0.70;99.40;;;;;;5074270;28;20044;-81
2022/12/11 02:30:05;;;;;;;113.65;33.35;;;0.70;99.30;;;;;;5074756;28;20458;-81
2022/12/11 02:32:38;;;;;;;110.38;35.17;;;0.70;99.30;;;;;;5074064;28;20052;-81
2022/12/11 02:35:09;;;;;;;112.07;35.38;;;0.80;99.30;;;;;;5074032;28;20039;-79
2022/12/11 02:37:37;;;;;;;120.45;35.63;;;0.80;99.30;;;;;;5074165;28;20044;-81
2022/12/11 02:40:06;;;;;;;115.53;34.15;;;0.80;99.30;;;;;;5073977;28;20036;-82
2022/12/11 02:42:34;;;;;;;133.32;37.10;;;0.80;99.30;;;;;;5057597;28;20083;-81
2022/12/11 02:45:02;;;;;;;120.13;35.92;;;0.80;99.30;;;;;;5073857;28;20086;-80
2022/12/11 02:47:30;;;;;;;127.53;38.67;;;0.80;99.30;;;;;;5057370;28;20507;-80
2022/12/11 02:49:58;;;;;;;137.60;38.50;;;0.80;99.30;;;;;;5073719;28;20040;-82
2022/12/11 02:52:26;;;;;;;127.18;38.35;;;0.80;99.30;;;;;;5073819;28;20385;-81
2022/12/11 02:54:55;;;;;;;135.15;39.20;;;0.80;99.30;;;;;;5057028;28;20044;-82
2022/12/11 02:57:43;;;;;;;136.90;42.08;;;0.80;99.30;;;;;;5056826;28;20457;-80
2022/12/11 03:00:10;;;;;;;133.85;41.13;;;0.90;99.30;;;;;;5056976;28;20109;-79
2022/12/11 03:02:37;;;;;;;156.48;42.38;;;0.90;99.20;;;;;;5073374;28;20044;-82
2022/12/11 03:05:03;;;;;;;131.85;41.08;;;0.90;99.20;;;;;;5040197;28;20045;-79
2022/12/11 03:07:33;;;;;;;166.18;42.45;;;0.90;99.20;;;;;;5056106;28;20083;-81
2022/12/11 03:09:59;;;;;;;148.05;42.72;;;0.90;99.20;;;;;;5056975;28;20109;-80
2022/12/11 03:12:39;;;;;;;139.13;38.55;;;0.90;99.20;;;;;;5056622;28;20044;-79
2022/12/11 03:15:08;;;;;;;147.30;43.15;;;0.90;99.20;;;;;;5056659;28;20043;-79
2022/12/11 03:17:43;;;;;;;146.35;42.15;;;0.90;99.20;;;;;;5056726;28;20063;-83
2022/12/11 03:20:09;;;;;;;162.48;44.55;;;0.90;99.20;;;;;;5073095;28;20052;-79
2022/12/11 03:23:06;;;;;;;170.93;45.58;;;0.90;99.20;;;;;;5056394;28;20127;-79
2022/12/11 03:25:58;;;;;;;183.32;47.13;;;0.90;99.20;;;;;;5068196;28;20500;-81
2022/12/11 03:28:41;;;;;;;146.98;40.38;;;0.90;99.20;;;;;;5056317;28;20442;-81
2022/12/11 03:31:11;;;;;;;143.05;40.63;;;0.90;99.10;;;;;;5073223;28;20471;-82
2022/12/11 03:33:40;;;;;;;146.73;43.60;;;0.80;99.10;;;;;;5056177;28;20047;-81
2022/12/11 03:36:11;;;;;;;163.95;47.90;;;0.80;99.10;;;;;;5072816;28;20041;-80
2022/12/11 03:38:42;;;;;;;154.20;43.33;;;0.80;99.10;;;;;;5056501;28;20069;-79
2022/12/11 03:41:11;;;;;;;161.45;41.17;;;0.80;99.10;;;;;;5056315;28;20105;-84
2022/12/11 03:43:39;;;;;;;156.07;40.63;;;0.80;99.20;;;;;;5056143;28;20036;-80
2022/12/11 03:46:07;;;;;;;153.68;41.15;;;0.70;99.10;;;;;;5056265;28;20145;-79
2022/12/11 03:48:36;;;;;;;158.15;42.53;;;0.70;99.10;;;;;;5055994;28;20083;-80
2022/12/11 03:51:05;;;;;;;171.65;43.95;;;0.80;99.20;;;;;;5055953;28;20040;-79
2022/12/11 03:53:33;;;;;;;150.30;40.92;;;0.80;99.20;;;;;;5055768;28;20052;-80
2022/12/11 03:56:01;;;;;;;147.52;40.63;;;0.80;99.20;;;;;;5072567;28;20055;-80
2022/12/11 03:58:27;;;;;;;147.32;38.83;;;0.70;99.20;;;;;;5055963;28;20040;-82
2022/12/11 04:00:53;;;;;;;138.48;42.30;;;0.80;99.10;;;;;;5055909;28;20131;-79
2022/12/11 04:03:18;;;;;;;155.05;41.50;;;0.70;99.20;;;;;;5055657;28;20127;-79
2022/12/11 04:05:50;;;;;;;143.20;40.63;;;0.80;99.10;;;;;;5072602;28;20040;-80
2022/12/11 04:08:19;;;;;;;143.57;37.45;;;0.70;99.10;;;;;;5072297;28;20041;-81
2022/12/11 04:10:45;;;;;;;138.32;38.53;;;0.80;99.20;;;;;;5055645;28;20036;-80
2022/12/11 04:13:11;;;;;;;137.60;38.15;;;0.80;99.20;;;;;;5055786;28;20040;-81
2022/12/11 04:15:38;;;;;;;151.45;39.35;;;0.80;99.20;;;;;;5055612;28;20037;-82
2022/12/11 04:26:21;;;;;;;137.57;37.10;;;0.80;99.10;;;;;;5044037;28;20059;-82
2022/12/11 04:28:47;;;;;;;130.98;37.70;;;0.80;99.10;;;;;;5072083;28;20044;-83
2022/12/11 04:31:16;;;;;;;115.93;34.53;;;0.80;99.10;;;;;;5072169;28;20051;-81
2022/12/11 04:33:42;;;;;;;134.45;36.00;;;0.80;99.10;;;;;;5055281;28;20037;-82
2022/12/11 04:36:09;;;;;;;125.57;35.13;;;0.80;99.10;;;;;;5072186;28;20055;-80
2022/12/11 04:38:35;;;;;;;126.45;35.63;;;0.70;99.10;;;;;;5038798;28;20045;-81
2022/12/11 04:41:04;;;;;;;116.25;34.08;;;0.80;99.10;;;;;;5071958;28;20400;-79
2022/12/11 04:43:30;;;;;;;123.20;35.65;;;0.80;99.10;;;;;;5055350;28;20044;-81
2022/12/11 04:46:05;;;;;;;112.55;35.03;;;0.80;99.10;;;;;;5055274;28;20404;-79
2022/12/11 04:48:31;;;;;;;120.53;35.45;;;0.80;99.10;;;;;;5071877;28;20496;-82
2022/12/11 04:50:58;;;;;;;121.88;37.22;;;0.80;99.10;;;;;;5055520;28;20428;-80
2022/12/11 04:53:24;;;;;;;131.05;36.03;;;0.80;99.10;;;;;;5055220;28;20131;-81
2022/12/11 04:55:49;;;;;;;117.38;34.22;;;0.80;99.10;;;;;;5022495;28;20033;-82
2022/12/11 04:58:15;;;;;;;117.63;34.08;;;0.80;99.10;;;;;;5071898;28;20688;-81
2022/12/11 05:00:41;;;;;;;125.80;35.78;;;0.80;99.00;;;;;;5055175;28;20063;-80
2022/12/11 05:03:07;;;;;;;101.00;34.03;;;0.80;99.10;;;;;;5055212;28;20044;-82
2022/12/11 05:05:33;;;;;;;117.63;34.47;;;0.80;99.00;;;;;;5055027;28;20064;-83
2022/12/11 05:07:58;;;;;;;119.03;36.50;;;0.80;99.00;;;;;;5038551;28;20101;-80
2022/12/11 05:10:24;;;;;;;120.43;36.97;;;0.90;99.10;;;;;;5055138;28;20044;-79
2022/12/11 05:12:50;;;;;;;110.57;34.03;;;0.80;99.00;;;;;;5055102;28;20051;-81
2022/12/11 05:15:16;;;;;;;110.97;32.40;;;0.80;99.00;;;;;;5055236;28;20423;-81
2022/12/11 05:17:41;;;;;;;113.82;33.65;;;0.90;99.00;;;;;;5071610;28;20037;-81
2022/12/11 05:20:08;;;;;;;111.25;31.50;;;0.90;99.00;;;;;;5038737;28;20047;-81
2022/12/11 05:22:34;;;;;;;113.32;34.15;;;0.90;99.00;;;;;;5055452;28;20045;-80
2022/12/11 05:25:00;;;;;;;112.22;33.42;;;0.90;99.00;;;;;;5071566;28;20047;-80
2022/12/11 05:27:25;;;;;;;100.53;31.13;;;0.80;99.00;;;;;;5055074;28;20044;-82
2022/12/11 05:29:51;;;;;;;113.72;33.03;;;0.90;99.00;;;;;;5040285;28;20539;-81
2022/12/11 05:32:16;;;;;;;112.45;33.45;;;0.90;99.00;;;;;;5025282;28;20067;-80
2022/12/11 05:34:42;;;;;;;109.18;33.95;;;0.90;99.00;;;;;;5058553;28;20492;-82
2022/12/11 05:37:09;;;;;;;100.82;31.25;;;0.90;99.00;;;;;;5074957;28;20498;-80
2022/12/11 05:39:34;;;;;;;111.38;34.85;;;0.90;99.00;;;;;;5075275;28;20098;-81
2022/12/11 05:42:00;;;;;;;110.70;34.10;;;0.90;99.00;;;;;;5074871;28;20040;-79
2022/12/11 05:44:26;;;;;;;101.95;30.90;;;0.90;99.00;;;;;;5058721;28;20041;-79
2022/12/11 05:46:51;;;;;;;96.13;30.58;;;0.90;99.00;;;;;;5042173;28;20032;-80
2022/12/11 05:49:17;;;;;;;100.95;32.83;;;0.90;99.00;;;;;;5074871;28;20037;-80
2022/12/11 05:51:43;;;;;;;110.30;33.45;;;0.90;99.00;;;;;;5074875;28;20036;-82
2022/12/11 05:54:09;;;;;;;100.70;30.95;;;0.90;98.90;;;;;;5074599;28;20052;-81
2022/12/11 05:56:35;;;;;;;99.07;31.67;;;0.90;98.90;;;;;;5075042;28;20071;-81
2022/12/11 05:59:02;;;;;;;94.93;31.88;;;0.90;98.90;;;;;;5074719;28;20044;-81
2022/12/11 06:01:32;;;;;;;96.30;31.30;;;0.90;98.90;;;;;;5058018;28;20056;-80
2022/12/11 06:03:58;;;;;;;98.68;31.95;;;0.90;98.90;;;;;;5074549;28;20044;-80
2022/12/11 06:06:25;;;;;;;101.10;29.83;;;0.90;98.90;;;;;;5058211;28;20086;-79
2022/12/11 06:08:55;;;;;;;93.75;30.55;;;0.90;98.90;;;;;;5057860;28;20041;-82
2022/12/11 06:11:21;;;;;;;86.28;29.08;;;1.00;98.90;;;;;;5057752;28;20119;-79
2022/12/11 06:13:47;;;;;;;95.18;30.48;;;1.00;98.90;;;;;;5074719;28;20169;-83
2022/12/11 06:16:13;;;;;;;80.88;28.02;;;1.00;98.90;;;;;;5057943;28;20407;-79
2022/12/11 06:18:44;;;;;;;90.50;31.48;;;1.00;98.80;;;;;;5057708;28;20047;-82
2022/12/11 06:21:21;;;;;;;94.28;29.77;;;0.90;98.80;;;;;;5057748;28;20503;-80
2022/12/11 06:23:49;;;;;;;92.35;31.17;;;0.90;98.80;;;;;;5057528;28;20098;-80
2022/12/11 06:26:15;;;;;;;94.07;30.67;;;0.90;98.80;;;;;;5074579;28;20546;-79
2022/12/11 06:28:41;;;;;;;95.57;29.52;;;0.90;98.80;;;;;;5041127;28;20388;-81
2022/12/11 06:31:07;;;;;;;90.85;30.35;;;0.90;98.80;;;;;;5041190;28;20033;-80
2022/12/11 06:33:33;;;;;;;103.70;30.80;;;0.90;98.80;;;;;;5057388;28;20477;-81
2022/12/11 06:36:04;;;;;;;85.65;30.65;;;1.00;98.90;;;;;;5057682;28;20040;-82
2022/12/11 06:38:30;;;;;;;97.45;30.63;;;1.00;98.80;;;;;;5041176;28;20392;-81
2022/12/11 06:41:01;;;;;;;92.63;31.23;;;0.90;98.80;;;;;;5023221;28;20040;-80
2022/12/11 06:43:27;;;;;;;87.78;30.20;;;1.00;98.80;;;;;;5073893;28;20125;-81
2022/12/11 06:45:52;;;;;;;97.40;30.65;;;0.90;98.80;;;;;;5057470;28;20087;-81
2022/12/11 06:48:19;;;;;;;96.50;30.80;;;1.00;98.80;;;;;;5040385;28;20048;-82
2022/12/11 06:50:45;;;;;;;107.90;33.63;;;1.00;98.80;;;;;;5073722;28;20036;-81
2022/12/11 06:53:12;;;;;;;91.50;33.08;;;0.90;98.80;;;;;;5056896;28;20084;-81
2022/12/11 06:55:38;;;;;;;99.85;33.70;;;1.00;98.80;;;;;;5073912;28;20080;-81
2022/12/11 06:58:04;;;;;;;102.18;34.55;;;1.00;98.70;;;;;;5073580;28;20133;-81
2022/12/11 07:00:30;;;;;;;94.43;30.88;;;1.00;98.80;;;;;;5056977;28;20129;-82
2022/12/11 07:02:56;;;;;;;82.90;28.58;;;0.90;98.80;;;;;;5056627;28;20067;-81
2022/12/11 07:05:22;;;;;;;86.70;28.15;;;1.00;98.80;;;;;;5073457;28;20036;-82
2022/12/11 07:07:48;;;;;;;86.15;29.98;;;1.00;98.70;;;;;;5073580;28;20040;-81
2022/12/11 07:10:13;;;;;;;88.60;31.75;;;1.00;98.70;;;;;;5035739;28;20501;-79
2022/12/11 07:12:39;;;;;;;86.30;29.58;;;1.00;98.70;;;;;;5029491;28;20037;-80
2022/12/11 07:15:05;;;;;;;93.22;29.20;;;1.00;98.70;;;;;;5036539;28;20051;-79
2022/12/11 07:17:31;;;;;;;99.47;31.15;;;1.00;98.70;;;;;;5030314;28;20370;-81
2022/12/11 07:19:57;;;;;;;100.95;30.42;;;1.00;98.70;;;;;;5036330;28;20044;-80
2022/12/11 07:22:23;;;;;;;92.28;32.45;;;1.00;98.70;;;;;;5045371;28;20037;-81
2022/12/11 07:24:48;;;;;;;94.60;31.73;;;1.00;98.70;;;;;;5060988;28;20085;-79
2022/12/11 07:27:14;;;;;;;95.68;30.65;;;0.90;98.70;;;;;;5031793;28;20040;-79
2022/12/11 07:29:40;;;;;;;95.85;34.20;;;0.90;98.70;;;;;;5044400;28;20040;-80
2022/12/11 07:32:05;;;;;;;96.63;31.67;;;0.90;98.70;;;;;;5027878;28;20127;-81
2022/12/11 07:34:31;;;;;;;98.53;31.50;;;1.00;98.70;;;;;;5048536;28;20040;-79
2022/12/11 07:36:57;;;;;;;114.20;32.25;;;1.00;98.70;;;;;;5044187;28;20071;-79
2022/12/11 07:39:23;;;;;;;98.95;35.20;;;0.90;98.70;;;;;;5046306;28;20174;-81
2022/12/11 07:41:48;;;;;;;101.55;32.38;;;1.00;98.80;;;;;;5060999;28;20155;-80
2022/12/11 07:44:14;;;;;;;99.18;31.08;;;1.00;98.70;;;;;;5044258;28;20506;-80
2022/12/11 07:46:40;;;;;;;106.28;33.50;;;1.00;98.70;;;;;;5064485;28;20035;-80
2022/12/11 07:49:06;;;;;;;105.03;31.80;;;1.00;98.70;;;;;;5067435;28;20484;-81
2022/12/11 07:51:36;;;;;;;89.53;31.70;;;1.00;98.70;;;;;;5048911;28;20039;-80
2022/12/11 07:54:10;;;;;;;102.95;31.77;;;1.00;98.70;;;;;;5064586;28;20407;-79
2022/12/11 07:56:36;;;;;;;103.43;32.60;;;1.00;98.80;;;;;;5047169;28;20135;-80
2022/12/11 07:59:03;;;;;;;109.38;36.15;;;1.00;98.70;;;;;;5051812;28;20048;-81
2022/12/11 08:01:35;;;;;;;114.80;33.92;;;1.00;98.80;;;;;;5034041;28;20103;-80
2022/12/11 08:04:02;;;;;;;98.68;33.13;;;1.00;98.80;;;;;;5053034;28;20044;-80
2022/12/11 08:06:30;;;;;;;98.90;33.70;;;1.00;98.80;;;;;;5070394;28;20055;-79
2022/12/11 08:08:58;;;;;;;106.18;34.25;;;1.10;98.70;;;;;;5052549;28;20040;-80
2022/12/11 08:11:24;;;;;;;107.95;36.90;;;1.10;98.70;;;;;;5053673;28;20490;-80
2022/12/11 08:13:50;;;;;;;104.93;37.35;;;1.10;98.80;;;;;;5053330;28;20041;-79
2022/12/11 08:16:16;;;;;;;105.65;35.95;;;1.00;98.70;;;;;;5053610;28;20094;-79
2022/12/11 08:18:44;;;;;;;109.07;35.95;;;1.10;98.70;;;;;;5052092;28;20080;-79
2022/12/11 08:21:16;;;;;;;103.47;35.70;;;1.10;98.70;;;;;;5070305;28;20404;-80
2022/12/11 08:23:42;;;;;;;90.65;33.35;;;1.00;98.70;;;;;;5069793;28;20093;-79
2022/12/11 08:26:11;;;;;;;96.28;33.03;;;1.10;98.70;;;;;;5070439;28;20075;-79
2022/12/11 08:28:37;;;;;;;96.03;31.85;;;1.10;98.70;;;;;;5068861;28;20080;-79
2022/12/11 08:31:05;;;;;;;90.38;32.85;;;1.10;98.70;;;;;;5070329;28;20040;-79
2022/12/11 08:33:31;;;;;;;86.65;33.55;;;1.10;98.70;;;;;;5052635;28;20086;-80
2022/12/11 08:35:57;;;;;;;94.82;34.22;;;1.10;98.70;;;;;;5070051;28;20037;-80
2022/12/11 08:38:23;;;;;;;97.25;36.03;;;1.10;98.70;;;;;;5068714;28;20032;-79
2022/12/11 08:40:48;;;;;;;105.00;40.30;;;1.10;98.70;;;;;;5053022;28;20051;-79
2022/12/11 08:43:14;;;;;;;101.63;37.50;;;1.10;98.70;;;;;;5036580;28;20090;-79
2022/12/11 08:45:40;;;;;;;92.78;35.00;;;1.10;98.70;;;;;;5069955;28;20048;-80
2022/12/11 08:48:05;;;;;;;119.72;48.53;;;1.10;98.70;;;;;;5069905;28;20182;-79
2022/12/11 08:50:31;;;;;;;93.97;36.70;;;1.10;98.70;;;;;;5031913;28;20044;-80
2022/12/11 08:52:57;;;;;;;89.47;35.72;;;1.10;98.60;;;;;;5053073;28;20033;-79
2022/12/11 08:55:23;;;;;;;99.72;35.85;;;1.10;98.60;;;;;;5052712;28;20051;-80
2022/12/11 08:57:49;;;;;;;88.65;33.67;;;1.20;98.70;;;;;;5069943;28;20044;-79
2022/12/11 09:00:15;;;;;;;84.32;32.13;;;1.10;98.70;;;;;;5068330;28;20044;-80
2022/12/11 09:02:41;;;;;;;91.85;33.00;;;1.10;98.60;;;;;;5069879;28;20049;-79
2022/12/11 09:05:08;;;;;;;90.22;35.53;;;1.20;98.60;;;;;;5055199;28;20131;-79
2022/12/11 09:07:35;;;;;;;93.65;34.22;;;1.10;98.60;;;;;;5040648;28;20469;-78
2022/12/11 09:10:02;;;;;;;85.72;30.90;;;1.10;98.60;;;;;;5072390;28;20431;-79
2022/12/11 09:12:28;;;;;;;84.00;31.08;;;1.10;98.50;;;;;;5057440;28;20455;-79
2022/12/11 09:14:53;;;;;;;85.03;31.80;;;1.20;98.60;;;;;;5073169;28;20303;-79
2022/12/11 09:17:19;;;;;;;83.00;31.92;;;1.20;98.50;;;;;;5039177;28;20131;-79
2022/12/11 09:19:45;;;;;;;80.85;32.90;;;1.20;98.60;;;;;;5072256;28;20048;-79
2022/12/11 09:22:11;;;;;;;82.43;32.15;;;1.20;98.60;;;;;;5057150;28;20403;-78
2022/12/11 09:24:38;;;;;;;86.70;32.95;;;1.20;98.60;;;;;;5073286;28;20063;-79
2022/12/11 09:27:04;;;;;;;83.78;30.35;;;1.20;98.60;;;;;;5056672;28;20033;-79
2022/12/11 09:29:31;;;;;;;80.47;32.20;;;1.30;98.40;;;;;;5055257;28;20037;-79
2022/12/11 09:31:57;;;;;;;82.28;33.13;;;1.30;98.50;;;;;;5073302;28;20059;-79
2022/12/11 09:34:23;;;;;;;84.55;32.63;;;1.30;98.60;;;;;;5055886;28;20029;-79
2022/12/11 09:36:48;;;;;;;90.03;34.53;;;1.30;98.50;;;;;;5056452;28;20043;-79
2022/12/11 09:39:15;;;;;;;83.85;32.45;;;1.40;98.50;;;;;;5055280;28;20040;-79
2022/12/11 09:42:19;;;;;;;78.15;31.23;;;1.40;98.50;;;;;;5073114;28;20090;-79
2022/12/11 09:44:50;;;;;;;73.32;28.73;;;1.40;98.40;;;;;;5056210;28;20048;-79
2022/12/11 09:47:50;;;;;;;67.47;28.75;;;1.40;98.40;;;;;;5056245;28;20044;-78
2022/12/11 09:50:30;;;;;;;80.40;30.17;;;1.40;98.40;;;;;;5070943;28;20041;-80
2022/12/11 09:53:20;;;;;;;76.72;29.27;;;1.40;98.40;;;;;;5073602;28;20124;-79
2022/12/11 09:56:06;;;;;;;70.00;30.45;;;1.40;98.30;;;;;;5074288;28;20044;-80
2022/12/11 09:58:46;;;;;;;65.80;26.27;;;1.40;98.40;;;;;;5073774;28;20040;-78
2022/12/11 10:01:41;;;;;;;71.22;27.83;;;1.50;98.30;;;;;;5074133;28;20124;-77
2022/12/11 10:04:37;;;;;;;60.38;27.30;;;1.50;98.30;;;;;;5074161;28;20048;-78
2022/12/11 10:07:10;;;;;;;64.50;26.50;;;1.50;98.30;;;;;;5057770;28;20484;-79
2022/12/11 10:09:54;;;;;;;62.47;26.27;;;1.50;98.30;;;;;;5074111;28;20041;-78
2022/12/11 10:12:38;;;;;;;60.03;27.38;;;1.50;98.20;;;;;;5074068;28;20047;-79
2022/12/11 10:15:18;;;;;;;;;;;1.60;98.10;;;;;;5057761;28;20102;-78
2022/12/11 10:17:45;;;;;;;53.42;23.88;;;1.60;98.00;;;;;;5074302;28;19916;-77
2022/12/11 10:20:25;;;;;;;52.58;24.90;;;1.60;98.00;;;;;;5056948;28;20044;-78
2022/12/11 10:22:53;;;;;;;55.13;24.63;;;1.60;98.00;;;;;;5057438;28;20388;-79
2022/12/11 10:25:23;;;;;;;59.20;24.42;;;1.60;97.70;;;;;;5073751;28;20048;-79
2022/12/11 10:27:49;;;;;;;58.35;26.05;;;1.60;97.80;;;;;;5073646;28;20044;-79
2022/12/11 10:30:21;;;;;;;59.58;25.27;;;1.70;97.70;;;;;;5073614;28;20039;-78
2022/12/11 10:33:05;;;;;;;59.13;25.15;;;1.70;97.80;;;;;;5057072;28;20036;-78
2022/12/11 10:35:53;;;;;;;56.65;25.77;;;1.70;97.80;;;;;;5073486;28;20036;-77
2022/12/11 10:38:31;;;;;;;63.78;28.48;;;1.70;97.60;;;;;;5073513;28;20080;-79
2022/12/11 10:41:00;;;;;;;55.08;27.73;;;1.70;97.70;;;;;;5056926;28;20431;-77
2022/12/11 10:43:37;;;;;;;60.58;28.50;;;1.70;97.50;;;;;;5056873;28;20044;-78
2022/12/11 10:46:04;;;;;;;63.58;27.30;;;1.70;97.40;;;;;;5073709;28;20050;-79
2022/12/11 10:48:30;;;;;;;57.15;27.63;;;1.70;97.30;;;;;;5073226;28;20045;-78
2022/12/11 10:51:04;;;;;;;57.53;26.98;;;1.70;97.20;;;;;;5073511;28;20461;-78
2022/12/11 10:53:32;;;;;;;57.05;26.85;;;1.70;97.20;;;;;;5056473;28;20544;-77
2022/12/11 10:55:58;;;;;;;57.22;27.83;;;1.80;97.30;;;;;;5073171;28;20033;-78
2022/12/11 10:58:28;;;;;;;59.60;27.00;;;1.70;97.30;;;;;;5073101;28;20095;-78
2022/12/11 11:01:15;;;;;;;59.78;26.65;;;1.70;97.20;;;;;;5072949;28;20045;-79
2022/12/11 11:03:58;;;;;;;60.85;27.65;;;1.80;97.30;;;;;;5073028;28;20086;-78
2022/12/11 11:06:25;;;;;;;55.67;26.13;;;1.80;97.10;;;;;;5056582;28;20435;-77
2022/12/11 11:08:53;;;;;;;65.40;29.13;;;1.80;97.10;;;;;;5056324;28;20083;-79
2022/12/11 11:11:22;;;;;;;56.35;27.15;;;1.80;97.30;;;;;;5072765;28;20036;-78
2022/12/11 11:13:48;;;;;;;53.25;25.35;;;1.80;97.00;;;;;;5072854;28;20123;-77
2022/12/11 11:16:17;;;;;;;62.75;27.40;;;1.70;96.70;;;;;;5072728;28;20136;-78
2022/12/11 11:18:52;;;;;;;55.03;25.42;;;1.70;96.90;;;;;;5072792;28;20045;-78
2022/12/11 11:21:20;;;;;;;67.40;29.67;;;1.70;97.10;;;;;;5072828;28;20049;-79
2022/12/11 11:23:46;;;;;;;57.08;26.10;;;1.70;97.10;;;;;;5055981;28;20044;-79
2022/12/11 11:26:12;;;;;;;62.33;28.92;;;1.70;97.10;;;;;;5055962;28;20041;-79
2022/12/11 11:28:49;;;;;;;61.75;27.05;;;1.70;97.00;;;;;;5072154;28;20063;-76
2022/12/11 11:31:17;;;;;;;57.10;26.95;;;1.70;97.10;;;;;;5072543;28;20041;-78
2022/12/11 11:33:58;;;;;;;57.50;26.95;;;1.70;97.00;;;;;;5072514;28;20090;-79
2022/12/11 11:36:30;;;;;;;59.33;27.33;;;1.70;96.90;;;;;;5072419;28;20040;-78
2022/12/11 11:39:06;;;;;;;55.72;26.75;;;1.80;97.00;;;;;;5072426;28;20052;-78
2022/12/11 11:41:48;;;;;;;58.40;27.52;;;1.80;97.10;;;;;;5072402;28;20105;-80
2022/12/11 11:44:57;;;;;;;56.83;27.83;;;1.80;97.10;;;;;;5072484;28;20396;-78
2022/12/11 11:47:27;;;;;;;59.65;28.08;;;1.80;97.00;;;;;;5069247;28;20060;-78
2022/12/11 11:50:06;;;;;;;61.83;28.50;;;1.80;96.80;;;;;;5072391;28;20384;-79
2022/12/11 11:52:43;;;;;;;57.72;29.48;;;1.80;97.00;;;;;;5055586;28;20044;-79
2022/12/11 11:55:17;;;;;;;57.88;29.48;;;1.80;96.90;;;;;;5055745;28;20040;-78
2022/12/11 11:58:15;;;;;;;56.30;28.75;;;1.80;96.90;;;;;;5072057;28;20087;-78
2022/12/11 12:00:41;;;;;;;58.45;28.17;;;1.80;96.70;;;;;;5055148;28;20561;-78
2022/12/11 12:03:18;;;;;;;57.88;28.60;;;1.90;96.70;;;;;;5055591;28;20040;-79
2022/12/11 12:05:53;;;;;;;57.00;26.33;;;1.90;96.70;;;;;;5072294;28;20400;-78
2022/12/11 12:08:32;;;;;;;;;;;1.90;96.90;;;;;;5055845;28;20101;-78
2022/12/11 12:11:17;;;;;;;52.60;27.08;;;1.90;96.60;;;;;;5071847;28;19956;-77
2022/12/11 12:13:51;;;;;;;53.00;27.00;;;2.00;96.60;;;;;;5071993;28;20170;-80
2022/12/11 12:16:54;;;;;;;50.22;26.83;;;1.90;96.40;;;;;;5055281;28;20037;-78
2022/12/11 12:19:34;;;;;;;50.78;25.05;;;1.90;96.40;;;;;;5071700;28;20492;-77
2022/12/11 12:22:19;;;;;;;49.25;25.83;;;1.90;96.40;;;;;;5055092;28;20139;-78
2022/12/11 12:24:57;;;;;;;52.08;25.63;;;2.00;96.30;;;;;;5055095;28;20041;-78
2022/12/11 12:27:26;;;;;;;51.78;25.50;;;2.00;96.20;;;;;;5071910;28;20149;-79
2022/12/11 12:30:10;;;;;;;54.08;26.30;;;2.00;96.00;;;;;;5054913;28;20044;-79
2022/12/11 12:32:54;;;;;;;48.17;25.00;;;2.00;96.20;;;;;;5054949;28;20037;-79
2022/12/11 12:35:36;;;;;;;51.17;25.95;;;2.00;96.20;;;;;;5071938;28;20036;-78
2022/12/11 12:38:31;;;;;;;49.28;24.75;;;2.00;95.90;;;;;;5055196;28;20450;-77
2022/12/11 12:41:18;;;;;;;54.15;27.35;;;2.00;96.10;;;;;;5075533;28;20040;-78
2022/12/11 12:43:51;;;;;;;43.72;23.70;;;2.00;96.00;;;;;;5075825;28;20044;-78
2022/12/11 12:47:02;;;;;;;43.92;24.60;;;2.00;95.80;;;;;;5059044;28;20043;-77
2022/12/11 12:49:38;;;;;;;47.50;25.48;;;2.00;96.10;;;;;;5057555;28;20049;-79
2022/12/11 12:52:10;;;;;;;49.22;25.25;;;2.00;95.80;;;;;;5075927;28;20044;-79
2022/12/11 12:54:38;;;;;;;49.17;24.20;;;2.10;95.90;;;;;;5075397;28;20052;-76
2022/12/11 12:57:04;;;;;;;48.10;26.42;;;1.90;95.20;;;;;;5075429;28;20075;-77
2022/12/11 12:59:30;;;;;;;46.67;25.83;;;2.00;95.40;;;;;;5075325;28;20048;-77